createdAt,value
2019-03-20T00:05:04.952Z,12.27
2019-03-20T00:10:10.428Z,11.83
2019-03-20T00:15:15.518Z,17.37
2019-03-20T00:20:21.187Z,12.93
2019-03-20T00:25:25.944Z,15.20
2019-03-20T00:30:30.618Z,13.67
2019-03-20T00:35:35.317Z,12.27
2019-03-20T00:40:40.984Z,14.43
2019-03-20T00:45:45.736Z,13.93
2019-03-20T00:50:50.469Z,12.17
2019-03-20T00:55:55.161Z,11.18
2019-03-20T01:01:00.139Z,14.93
2019-03-20T01:06:05.233Z,16.23
2019-03-20T01:11:10.014Z,12.07
2019-03-20T01:16:15.829Z,12.57
2019-03-20T01:21:21.536Z,11.43
2019-03-20T01:26:26.229Z,10.60
2019-03-20T01:31:31.937Z,17.30
2019-03-20T01:36:36.621Z,10.53
2019-03-20T01:41:41.290Z,12.20
2019-03-20T01:46:45.984Z,14.37
2019-03-20T01:51:50.675Z,11.13
2019-03-20T01:56:55.379Z,15.67
2019-03-20T02:02:00.078Z,11.53
2019-03-20T02:07:07.861Z,11.57
2019-03-20T02:12:12.636Z,12.17
2019-03-20T02:17:17.292Z,13.60
2019-03-20T02:22:21.986Z,12.15
2019-03-20T02:27:26.672Z,11.30
2019-03-20T02:32:31.329Z,8.63
2019-03-20T02:37:36.015Z,9.43
2019-03-20T02:42:40.744Z,14.00
2019-03-20T02:47:45.584Z,11.10
2019-03-20T02:52:50.429Z,8.10
2019-03-20T02:57:55.230Z,17.97
2019-03-20T03:03:00.544Z,15.07
2019-03-20T03:08:05.409Z,13.93
2019-03-20T03:13:10.470Z,10.87
2019-03-20T03:18:15.153Z,9.15
2019-03-20T03:23:19.852Z,12.98
2019-03-20T03:28:24.528Z,13.70
2019-03-20T03:33:29.564Z,15.90
2019-03-20T03:38:34.249Z,10.70
2019-03-20T03:43:39.160Z,10.33
2019-03-20T03:48:43.900Z,12.40
2019-03-20T03:53:48.575Z,8.87
2019-03-20T03:58:53.396Z,15.17
2019-03-20T04:03:58.059Z,12.53
2019-03-20T04:09:02.717Z,8.37
2019-03-20T04:14:07.550Z,12.23
2019-03-20T04:19:12.382Z,12.87
2019-03-20T04:24:17.153Z,9.77
2019-03-20T04:29:21.901Z,9.90
2019-03-20T04:34:26.596Z,12.87
2019-03-20T04:39:31.337Z,12.03
2019-03-20T04:44:36.020Z,9.33
2019-03-20T04:49:40.680Z,10.10
2019-03-20T04:54:45.336Z,9.47
2019-03-20T04:59:50.036Z,13.97
2019-03-20T05:04:54.702Z,10.40
2019-03-20T05:09:59.374Z,15.63
2019-03-20T05:15:04.474Z,7.73
2019-03-20T05:20:10.939Z,8.80
2019-03-20T05:25:16.209Z,9.68
2019-03-20T05:30:20.937Z,8.87
2019-03-20T05:35:25.843Z,13.93
2019-03-20T05:40:30.667Z,13.20
2019-03-20T05:45:35.999Z,11.03
2019-03-20T05:50:41.119Z,8.10
2019-03-20T05:55:46.139Z,14.90
2019-03-20T06:00:51.087Z,9.43
2019-03-20T06:05:56.082Z,9.00
2019-03-20T06:11:00.929Z,9.43
2019-03-20T06:16:05.855Z,8.83
2019-03-20T06:21:10.848Z,13.77
2019-03-20T06:26:15.866Z,11.87
2019-03-20T06:31:21.121Z,11.83
2019-03-20T06:36:28.267Z,13.70
2019-03-20T06:41:33.174Z,10.30
2019-03-20T06:46:39.276Z,14.13
2019-03-20T06:51:44.210Z,11.40
2019-03-20T06:56:49.153Z,11.23
2019-03-20T07:01:54.839Z,9.13
2019-03-20T07:07:20.233Z,6.07
2019-03-20T07:12:25.200Z,11.23
2019-03-20T07:17:30.978Z,6.97
2019-03-20T07:22:36.034Z,15.07
2019-03-20T07:27:41.277Z,7.03
2019-03-20T07:32:46.634Z,5.80
2019-03-20T07:37:55.956Z,10.93
2019-03-20T07:43:08.334Z,13.67
2019-03-20T07:48:04.926Z,9.60
2019-03-20T07:53:14.793Z,11.00
2019-03-20T07:58:19.991Z,9.60
2019-03-20T08:03:24.789Z,8.57
2019-03-20T08:08:29.508Z,14.57
2019-03-20T08:13:34.238Z,9.97
2019-03-20T08:18:38.876Z,10.03
2019-03-20T08:23:43.647Z,13.10
2019-03-20T08:28:48.452Z,11.60
2019-03-20T08:33:53.140Z,12.53
2019-03-20T08:38:58.101Z,5.97
2019-03-20T08:44:03.171Z,10.53
2019-03-20T08:49:08.131Z,9.90
2019-03-20T08:54:12.982Z,7.83
2019-03-20T08:59:18.195Z,7.90
2019-03-20T09:04:23.211Z,17.93
2019-03-20T09:09:28.103Z,7.80
2019-03-20T09:14:33.083Z,10.37
2019-03-20T09:19:38.060Z,10.30
2019-03-20T09:24:46.700Z,8.83
2019-03-20T09:29:51.690Z,9.33
2019-03-20T09:34:56.377Z,10.00
2019-03-20T09:40:01.079Z,7.70
2019-03-20T09:45:07.591Z,9.77
2019-03-20T09:50:15.135Z,11.83
2019-03-20T09:55:19.945Z,9.98
2019-03-20T10:00:24.814Z,4.87
2019-03-20T10:05:29.518Z,14.73
2019-03-20T10:10:34.295Z,10.37
2019-03-20T10:15:39.059Z,10.03
2019-03-20T10:20:43.719Z,6.87
2019-03-20T10:25:48.586Z,10.13
2019-03-20T10:30:53.354Z,15.03
2019-03-20T10:35:58.036Z,5.03
2019-03-20T10:41:02.708Z,8.07
2019-03-20T10:46:07.362Z,8.27
2019-03-20T10:51:12.394Z,9.73
2019-03-20T10:56:17.367Z,15.73
2019-03-20T11:01:22.442Z,12.47
2019-03-20T11:06:27.548Z,11.77
2019-03-20T11:11:32.824Z,11.47
2019-03-20T11:16:37.792Z,14.95
2019-03-20T11:21:42.737Z,15.73
2019-03-20T11:26:47.637Z,11.57
2019-03-20T11:31:52.359Z,12.07
2019-03-20T11:36:57.065Z,5.97
2019-03-20T11:42:01.810Z,12.55
2019-03-20T11:47:06.657Z,8.53
2019-03-20T11:52:11.344Z,9.70
2019-03-20T11:57:16.087Z,11.63
2019-03-20T12:02:28.035Z,9.23
2019-03-20T12:07:27.315Z,14.43
2019-03-20T12:12:32.011Z,9.70
2019-03-20T12:17:36.957Z,9.45
2019-03-20T12:22:42.957Z,12.47
2019-03-20T12:27:47.925Z,5.95
2019-03-20T12:32:52.941Z,10.47
2019-03-20T12:37:57.952Z,14.63
2019-03-20T12:43:05.600Z,12.07
2019-03-20T12:48:10.970Z,9.20
2019-03-20T12:53:16.064Z,11.97
2019-03-20T12:58:21.043Z,12.40
2019-03-20T13:03:26.271Z,14.13
2019-03-20T13:08:31.343Z,16.40
2019-03-20T13:13:36.522Z,12.68
2019-03-20T13:18:41.546Z,14.97
2019-03-20T13:23:46.604Z,19.67
2019-03-20T13:28:51.739Z,13.95
2019-03-20T13:33:56.424Z,18.40
2019-03-20T13:39:01.109Z,19.15
2019-03-20T13:44:07.543Z,19.27
2019-03-20T13:49:12.250Z,17.77
2019-03-20T13:54:16.927Z,17.27
2019-03-20T13:59:21.602Z,15.90
2019-03-20T14:04:26.292Z,20.45
2019-03-20T14:09:30.967Z,12.55
2019-03-20T14:14:35.655Z,15.53
2019-03-20T14:19:40.316Z,15.20
2019-03-20T14:24:44.957Z,17.52
2019-03-20T14:29:49.676Z,16.40
2019-03-20T14:34:54.365Z,21.75
2019-03-20T14:39:59.063Z,16.07
2019-03-20T14:45:03.987Z,18.75
2019-03-20T14:50:10.705Z,16.25
2019-03-20T14:55:15.536Z,16.00
2019-03-20T15:00:24.442Z,16.32
2019-03-20T15:05:29.219Z,19.57
2019-03-20T15:10:34.279Z,13.35
2019-03-20T15:15:45.520Z,14.58
2019-03-20T15:20:50.183Z,14.87
2019-03-20T15:25:54.863Z,18.32
2019-03-20T15:30:59.590Z,12.88
2019-03-20T15:36:04.644Z,12.78
2019-03-20T15:41:09.554Z,15.20
2019-03-20T15:46:14.921Z,12.30
2019-03-20T15:51:19.962Z,13.90
2019-03-20T15:56:25.622Z,13.25
2019-03-20T16:01:30.317Z,19.05
2019-03-20T16:06:35.022Z,10.90
2019-03-20T16:11:39.708Z,13.18
2019-03-20T16:16:44.434Z,12.53
2019-03-20T16:21:49.096Z,14.98
2019-03-20T16:26:55.420Z,12.93
2019-03-20T16:32:00.523Z,10.50
2019-03-20T16:37:05.248Z,11.45
2019-03-20T16:42:10.031Z,11.43
2019-03-20T16:47:14.787Z,10.78
2019-03-20T16:52:19.519Z,9.37
2019-03-20T16:57:24.191Z,10.72
2019-03-20T17:02:28.912Z,12.28
2019-03-20T17:07:33.856Z,9.95
2019-03-20T17:12:38.528Z,10.18
2019-03-20T17:17:43.301Z,12.50
2019-03-20T17:22:48.077Z,9.23
2019-03-20T17:27:52.895Z,14.77
2019-03-20T17:32:57.676Z,13.07
2019-03-20T17:38:02.475Z,11.25
2019-03-20T17:43:07.303Z,10.43
2019-03-20T17:48:12.452Z,11.28
2019-03-20T17:53:17.230Z,11.70
2019-03-20T17:58:31.969Z,12.95
2019-03-20T18:03:37.010Z,17.85
2019-03-20T18:08:40.889Z,11.88
2019-03-20T18:13:45.661Z,13.55
2019-03-20T18:18:50.368Z,12.67
2019-03-20T18:23:55.099Z,12.98
2019-03-20T18:28:59.809Z,11.75
2019-03-20T18:34:04.689Z,12.40
2019-03-20T18:39:09.557Z,11.55
2019-03-20T18:44:14.334Z,11.30
2019-03-20T18:49:19.032Z,11.00
2019-03-20T18:54:23.753Z,8.38
2019-03-20T18:59:28.800Z,10.48
2019-03-20T19:04:33.548Z,9.70
2019-03-20T19:14:43.728Z,6.87
2019-03-20T19:19:48.397Z,10.75
2019-03-20T19:24:53.083Z,14.50
2019-03-20T19:29:57.786Z,9.10
2019-03-20T19:35:02.527Z,6.42
2019-03-20T19:40:07.473Z,7.42
2019-03-20T19:45:12.522Z,8.93
2019-03-20T19:50:17.302Z,8.60
2019-03-20T19:55:22.032Z,9.00
2019-03-20T20:00:26.831Z,10.68
2019-03-20T20:05:31.615Z,9.55
2019-03-20T20:10:40.091Z,8.03
2019-03-20T20:15:44.838Z,9.10
2019-03-20T20:20:49.594Z,10.80
2019-03-20T20:25:54.378Z,8.08
2019-03-20T20:30:59.112Z,10.33
2019-03-20T20:36:04.617Z,9.80
2019-03-20T20:41:09.310Z,13.47
2019-03-20T20:46:13.984Z,9.77
2019-03-20T20:51:18.749Z,8.70
2019-03-20T20:56:23.417Z,9.60
2019-03-20T21:01:30.099Z,7.22
2019-03-20T21:06:34.526Z,8.73
2019-03-20T21:11:39.219Z,10.82
2019-03-20T21:16:44.466Z,10.20
2019-03-20T21:22:20.161Z,7.77
2019-03-20T21:28:03.433Z,7.97
2019-03-20T21:33:12.214Z,11.28
2019-03-20T21:38:15.617Z,12.57
2019-03-20T21:43:51.715Z,8.18
2019-03-20T21:48:56.933Z,15.75
2019-03-20T21:54:41.109Z,18.55
2019-03-20T22:00:23.308Z,15.55
2019-03-20T22:06:08.988Z,17.17
2019-03-20T22:11:57.188Z,18.87
2019-03-20T22:17:50.815Z,19.50
2019-03-20T22:23:12.814Z,18.32
2019-03-20T22:28:47.586Z,19.40
2019-03-20T22:34:28.560Z,18.53
2019-03-20T22:40:32.951Z,30.05
2019-03-20T22:46:11.439Z,23.73
2019-03-20T22:51:53.189Z,25.67
2019-03-20T22:57:30.293Z,22.93
2019-03-20T23:02:44.613Z,27.70
2019-03-20T23:07:49.869Z,28.40
2019-03-20T23:12:55.136Z,22.50
2019-03-20T23:18:00.449Z,24.87
2019-03-20T23:23:05.681Z,26.73
2019-03-20T23:28:11.176Z,25.17
2019-03-20T23:33:16.393Z,26.60
2019-03-20T23:38:21.612Z,26.60
2019-03-20T23:43:26.905Z,28.27
2019-03-20T23:48:45.020Z,28.27
2019-03-20T23:53:52.433Z,25.17
2019-03-20T23:58:57.650Z,29.18
